F.r. Bigelow — WDB8153 — position and weather

sailwx.info

Track history (hours):
 
Tides and Currents Weather Stations Pressure Air Temp Water Temp Dewpoint Dewpoint Depression Visibility Wind Speed Wind Dir Waves Ship Positions

F.r. Bigelow

Owner: INGRAM BARGE COMPANY, Nashville, TN. More information available from US FCC via Universal Licensing System and Coast Guard Vessel Documentation Center.

Last reported at 2016-May-05 06:33 UTC. Time now 2016-May-06 13:01 UTC.
Position N 29°56' W 090°21'.

Length 46 m; draft 2.7 m.

Type: Tow > 200 m length. MMSI: 366953890.

Date/timePositionNaut miles runAvg speedWind from/ knotsBaromVisibWave heightAir tempDewpointWater temp
2016-May-05 06:33N 29°56' W 090°21'6 4.8
2016-May-05 05:15N 29°57' W 090°14'3 3.5
2016-May-05 04:31N 29°56' W 090°11'3 2.9
2016-May-05 03:33N 29°57' W 090°08'3 2.5
2016-May-05 02:33N 29°55' W 090°07'4 3.9
2016-May-05 01:33N 29°57' W 090°04'2 2.2
2016-May-05 00:33N 29°57' W 090°01'3 3.4
2016-May-04 23:33N 29°55' W 089°57'2 1.9
2016-May-04 22:33N 29°55' W 089°55'0 0.0
2016-May-04 21:33N 29°55' W 089°55'0 0.0
2016-May-04 20:32N 29°55' W 089°55'0 0.4
2016-May-04 19:33N 29°55' W 089°55'3 2.8
2016-May-04 18:33N 29°52' W 089°57'4 3.8
2016-May-04 17:33N 29°49' W 089°60'1 1.4
2016-May-04 16:33N 29°48' W 090°01'2 1.7
2016-May-04 15:32N 29°47' W 090°01'2 0.1
2016-May-03 17:29N 29°45' W 090°01'6 6.2
2016-May-03 16:33N 29°50' W 089°59'4 3.5
2016-May-03 15:31N 29°52' W 089°56'3 3.0
2016-May-03 14:33N 29°55' W 089°55'8 7.6
2016-May-03 13:33N 29°57' W 090°03'5 4.8
2016-May-03 12:33N 29°55' W 090°08'5 4.5
2016-May-03 11:33N 29°56' W 090°13'25 1.0
2016-May-02 11:25N 30°02' W 090°41'20 0.7
2016-May-01 06:06N 29°57' W 090°18'6 3.5
2016-May-01 04:30N 29°55' W 090°12'3 3.5
2016-May-01 03:33N 29°57' W 090°08'3 3.5
2016-May-01 02:33N 29°55' W 090°05'4 3.7
2016-May-01 01:33N 29°57' W 090°01'3 3.0
2016-May-01 00:33N 29°56' W 089°58'3 2.5
2016-Apr-30 23:28N 29°55' W 089°55'0 0.0
2016-Apr-30 22:33N 29°55' W 089°55'0 0.0
2016-Apr-30 21:32N 29°55' W 089°55'0 0.0
2016-Apr-30 20:29N 29°55' W 089°55'0 0.0
2016-Apr-30 19:31N 29°55' W 089°55'2 1.1
2016-Apr-30 17:33N 29°53' W 089°54'4 3.6
2016-Apr-30 16:33N 29°53' W 089°58'5 4.6
2016-Apr-30 15:32N 29°48' W 090°00'3 0.1
2016-Apr-29 14:31N 29°45' W 090°01'7 7.5
2016-Apr-29 13:33N 29°52' W 089°59'4 4.3
2016-Apr-29 12:33N 29°55' W 089°55'1 0.6
2016-Apr-29 11:33N 29°55' W 089°56'0 0.0
2016-Apr-29 10:33N 29°55' W 089°56'0 0.0
2016-Apr-29 09:33N 29°55' W 089°56'0 0.0
2016-Apr-29 08:33N 29°55' W 089°56'0 0.0
2016-Apr-29 07:33N 29°55' W 089°56'0 0.0
2016-Apr-29 06:33N 29°55' W 089°56'0 0.0
2016-Apr-29 05:33N 29°55' W 089°56'0 0.0
2016-Apr-29 04:33N 29°55' W 089°56'3 2.6
2016-Apr-29 03:33N 29°56' W 089°59'4 4.5
2016-Apr-29 02:33N 29°57' W 090°03'4 4.3
2016-Apr-29 01:33N 29°56' W 090°08'5 4.7
2016-Apr-29 00:31N 29°57' W 090°14'  
2016-Apr-25 22:29N 29°56' W 090°13'4 4.0
2016-Apr-25 21:33N 29°56' W 090°08'4 4.3
2016-Apr-25 20:33N 29°56' W 090°04'0 0.3
2016-Apr-25 19:33N 29°57' W 090°03'0 0.1
2016-Apr-25 18:33N 29°57' W 090°03'0 0.0
2016-Apr-25 17:33N 29°57' W 090°03'4 3.6
2016-Apr-25 16:33N 29°56' W 089°59'5 4.6
2016-Apr-25 15:33N 29°54' W 089°55'6 5.9
2016-Apr-25 14:33N 29°50' W 089°59'  
Track history (hours):
 
Tides and Currents Weather Stations Pressure Air Temp Water Temp Dewpoint Dewpoint Depression Visibility Wind Speed Wind Dir Waves Ship Positions

F.r. Bigelow

Owner: INGRAM BARGE COMPANY, Nashville, TN. More information available from US FCC via Universal Licensing System and Coast Guard Vessel Documentation Center.

Last reported at 2016-May-05 06:33 UTC. Time now 2016-May-06 13:01 UTC.
Position N 29°56' W 090°21'.

Length 46 m; draft 2.7 m.

Type: Tow > 200 m length. MMSI: 366953890.

Date/timePositionNaut miles runAvg speedWind from/ knotsBaromVisibWave heightAir tempDewpointWater temp
2016-May-05 06:33N 29°56' W 090°21'6 4.8
2016-May-05 05:15N 29°57' W 090°14'3 3.5
2016-May-05 04:31N 29°56' W 090°11'3 2.9
2016-May-05 03:33N 29°57' W 090°08'3 2.5
2016-May-05 02:33N 29°55' W 090°07'4 3.9
2016-May-05 01:33N 29°57' W 090°04'2 2.2
2016-May-05 00:33N 29°57' W 090°01'3 3.4
2016-May-04 23:33N 29°55' W 089°57'2 1.9
2016-May-04 22:33N 29°55' W 089°55'0 0.0
2016-May-04 21:33N 29°55' W 089°55'0 0.0
2016-May-04 20:32N 29°55' W 089°55'0 0.4
2016-May-04 19:33N 29°55' W 089°55'3 2.8
2016-May-04 18:33N 29°52' W 089°57'4 3.8
2016-May-04 17:33N 29°49' W 089°60'1 1.4
2016-May-04 16:33N 29°48' W 090°01'2 1.7
2016-May-04 15:32N 29°47' W 090°01'2 0.1
2016-May-03 17:29N 29°45' W 090°01'6 6.2
2016-May-03 16:33N 29°50' W 089°59'4 3.5
2016-May-03 15:31N 29°52' W 089°56'3 3.0
2016-May-03 14:33N 29°55' W 089°55'8 7.6
2016-May-03 13:33N 29°57' W 090°03'5 4.8
2016-May-03 12:33N 29°55' W 090°08'5 4.5
2016-May-03 11:33N 29°56' W 090°13'25 1.0
2016-May-02 11:25N 30°02' W 090°41'20 0.7
2016-May-01 06:06N 29°57' W 090°18'6 3.5
2016-May-01 04:30N 29°55' W 090°12'3 3.5
2016-May-01 03:33N 29°57' W 090°08'3 3.5
2016-May-01 02:33N 29°55' W 090°05'4 3.7
2016-May-01 01:33N 29°57' W 090°01'3 3.0
2016-May-01 00:33N 29°56' W 089°58'3 2.5
2016-Apr-30 23:28N 29°55' W 089°55'0 0.0
2016-Apr-30 22:33N 29°55' W 089°55'0 0.0
2016-Apr-30 21:32N 29°55' W 089°55'0 0.0
2016-Apr-30 20:29N 29°55' W 089°55'0 0.0
2016-Apr-30 19:31N 29°55' W 089°55'2 1.1
2016-Apr-30 17:33N 29°53' W 089°54'4 3.6
2016-Apr-30 16:33N 29°53' W 089°58'5 4.6
2016-Apr-30 15:32N 29°48' W 090°00'3 0.1
2016-Apr-29 14:31N 29°45' W 090°01'7 7.5
2016-Apr-29 13:33N 29°52' W 089°59'4 4.3
2016-Apr-29 12:33N 29°55' W 089°55'1 0.6
2016-Apr-29 11:33N 29°55' W 089°56'0 0.0
2016-Apr-29 10:33N 29°55' W 089°56'0 0.0
2016-Apr-29 09:33N 29°55' W 089°56'0 0.0
2016-Apr-29 08:33N 29°55' W 089°56'0 0.0
2016-Apr-29 07:33N 29°55' W 089°56'0 0.0
2016-Apr-29 06:33N 29°55' W 089°56'0 0.0
2016-Apr-29 05:33N 29°55' W 089°56'0 0.0
2016-Apr-29 04:33N 29°55' W 089°56'3 2.6
2016-Apr-29 03:33N 29°56' W 089°59'4 4.5
2016-Apr-29 02:33N 29°57' W 090°03'4 4.3
2016-Apr-29 01:33N 29°56' W 090°08'5 4.7
2016-Apr-29 00:31N 29°57' W 090°14'  
2016-Apr-25 22:29N 29°56' W 090°13'4 4.0
2016-Apr-25 21:33N 29°56' W 090°08'4 4.3
2016-Apr-25 20:33N 29°56' W 090°04'0 0.3
2016-Apr-25 19:33N 29°57' W 090°03'0 0.1
2016-Apr-25 18:33N 29°57' W 090°03'0 0.0
2016-Apr-25 17:33N 29°57' W 090°03'4 3.6
2016-Apr-25 16:33N 29°56' W 089°59'5 4.6
2016-Apr-25 15:33N 29°54' W 089°55'6 5.9
2016-Apr-25 14:33N 29°50' W 089°59'  

Dump ship's entire track history